Pagina principale
METAR-TAF:

METAR-TAF

Aeroporti :

Cannes, Francia

latitudine: 43-33N, longitudine: 006-57E, altezza: 3 m

Osservazione

Il bollettino è stato emesso 26 minuti fa, alle 23:30 UTC
Vento 2 kt da direzioni variabili
Temperature 21°C
Umidità 88%
Pressione 1015 hPa
Visibilità 10 km o più
nessuna nube inferiore a 1500 m e nessun cumulonembo

METAR: LFMD 142330Z AUTO VRB02KT CAVOK 21/19 Q1015

Ora: 01:56 (23:56 UTC)

Previsione

Il bollettino è stato emesso 9 ore e 56 minuti fa, alle 14:00 UTC
Previsione valida dal 14 alle 15 UTC al 15 alle 15 UTC
Vento 8 kt da sud
Visibilità 10 km o più
nessuna nube inferiore a 1500 m e nessun cumulonembo
Probabilità 40% :
Temporaneamente
dal 14 alle 22 UTC al 15 alle 07 UTC
Nuvoloso ad un'altezza di 500 ft

TAF: LFMD 141400Z 1415/1515 18008KT CAVOK PROB40 TEMPO 1422/1507 BKN005

Osservazioni e previsioni meteorologiche di più di 4000 aeroporti (messaggi METAR e TAF).

Le stazioni disponibili sono rappresentate dai dischi gialli e rossi sulla carta.

Puntare il mouse per vedere il nome della stazione.

Clicca sopra per visualizzare le osservazioni e previsioni meteorologiche.

Per cambiare la mappa : fare clic sui pulsanti verdi con una croce nera per ingrandire, il pulsante verde con un trattino per diminuire, o sulla freccia verde per le mappe adiacenti.


METAR-TAF: